sensor_id;sensor_type;location;lat;lon;timestamp;pressure;altitude;pressure_sealevel;temperature;humidity
56074;BME280;41950;55.840;37.442;2023-03-01T00:01:59;98859.28;;;-5.90;64.22
56074;BME280;41950;55.840;37.442;2023-03-01T00:04:27;98811.25;;;-6.15;64.68
56074;BME280;41950;55.840;37.442;2023-03-01T00:06:53;98854.25;;;-5.88;63.95
56074;BME280;41950;55.840;37.442;2023-03-01T00:09:19;98828.44;;;-6.05;63.83
56074;BME280;41950;55.840;37.442;2023-03-01T00:11:45;98843.94;;;-5.96;64.15
56074;BME280;41950;55.840;37.442;2023-03-01T00:14:11;98840.22;;;-6.06;63.83
56074;BME280;41950;55.840;37.442;2023-03-01T00:16:40;98843.59;;;-6.05;64.09
56074;BME280;41950;55.840;37.442;2023-03-01T00:19:13;98843.50;;;-6.08;63.42
56074;BME280;41950;55.840;37.442;2023-03-01T00:21:39;98827.13;;;-6.19;63.86
56074;BME280;41950;55.840;37.442;2023-03-01T00:24:07;98844.25;;;-6.11;64.34
56074;BME280;41950;55.840;37.442;2023-03-01T00:26:33;98834.75;;;-6.18;64.39
56074;BME280;41950;55.840;37.442;2023-03-01T00:28:59;98842.47;;;-6.13;64.29
56074;BME280;41950;55.840;37.442;2023-03-01T00:31:28;98835.56;;;-6.19;63.76
56074;BME280;41950;55.840;37.442;2023-03-01T00:34:03;98846.66;;;-6.14;64.27
56074;BME280;41950;55.840;37.442;2023-03-01T00:36:35;98841.50;;;-6.17;64.53
56074;BME280;41950;55.840;37.442;2023-03-01T00:39:01;98829.59;;;-6.21;64.72
56074;BME280;41950;55.840;37.442;2023-03-01T00:41:27;98839.16;;;-6.12;63.51
56074;BME280;41950;55.840;37.442;2023-03-01T00:43:56;98795.16;;;-6.43;63.82
56074;BME280;41950;55.840;37.442;2023-03-01T00:46:26;98830.41;;;-6.22;64.30
56074;BME280;41950;55.840;37.442;2023-03-01T00:48:53;98822.72;;;-6.25;64.70
56074;BME280;41950;55.840;37.442;2023-03-01T00:51:24;98824.34;;;-6.27;64.98
56074;BME280;41950;55.840;37.442;2023-03-01T00:53:53;98825.09;;;-6.30;65.05
56074;BME280;41950;55.840;37.442;2023-03-01T00:56:19;98827.94;;;-6.20;65.16
56074;BME280;41950;55.840;37.442;2023-03-01T00:58:46;98828.78;;;-6.20;64.08
56074;BME280;41950;55.840;37.442;2023-03-01T01:01:14;98825.41;;;-6.20;62.82
56074;BME280;41950;55.840;37.442;2023-03-01T01:03:50;98801.97;;;-6.40;62.62
56074;BME280;41950;55.840;37.442;2023-03-01T01:06:18;98820.81;;;-6.31;63.59
56074;BME280;41950;55.840;37.442;2023-03-01T01:08:44;98817.50;;;-6.30;62.95
56074;BME280;41950;55.840;37.442;2023-03-01T01:11:11;98816.31;;;-6.39;63.29
56074;BME280;41950;55.840;37.442;2023-03-01T01:13:38;98819.91;;;-6.33;63.30
56074;BME280;41950;55.840;37.442;2023-03-01T01:16:05;98818.13;;;-6.35;63.16
56074;BME280;41950;55.840;37.442;2023-03-01T01:18:31;98795.59;;;-6.55;63.53
56074;BME280;41950;55.840;37.442;2023-03-01T01:20:57;98803.97;;;-6.56;63.37
56074;BME280;41950;55.840;37.442;2023-03-01T01:23:23;98824.59;;;-6.43;63.19
56074;BME280;41950;55.840;37.442;2023-03-01T01:25:49;98827.22;;;-6.40;63.67
56074;BME280;41950;55.840;37.442;2023-03-01T01:28:14;98815.09;;;-6.50;63.61
56074;BME280;41950;55.840;37.442;2023-03-01T01:30:40;98832.25;;;-6.40;63.90
56074;BME280;41950;55.840;37.442;2023-03-01T01:33:07;98793.69;;;-6.60;64.61
56074;BME280;41950;55.840;37.442;2023-03-01T01:35:33;98820.22;;;-6.47;64.84
56074;BME280;41950;55.840;37.442;2023-03-01T01:38:01;98835.69;;;-6.38;64.70
56074;BME280;41950;55.840;37.442;2023-03-01T01:40:29;98838.50;;;-6.31;63.32
56074;BME280;41950;55.840;37.442;2023-03-01T01:42:55;98831.97;;;-6.26;63.10
56074;BME280;41950;55.840;37.442;2023-03-01T01:45:31;98834.69;;;-6.19;62.98
56074;BME280;41950;55.840;37.442;2023-03-01T01:48:04;98770.28;;;-6.56;62.83
56074;BME280;41950;55.840;37.442;2023-03-01T01:50:33;98833.13;;;-6.16;62.44
56074;BME280;41950;55.840;37.442;2023-03-01T01:53:15;98843.44;;;-6.10;62.92
56074;BME280;41950;55.840;37.442;2023-03-01T01:55:55;98833.19;;;-6.14;62.71
56074;BME280;41950;55.840;37.442;2023-03-01T01:58:25;98833.72;;;-6.23;62.93
56074;BME280;41950;55.840;37.442;2023-03-01T02:00:54;98828.53;;;-6.28;63.14
56074;BME280;41950;55.840;37.442;2023-03-01T02:03:27;98833.44;;;-6.31;63.15
56074;BME280;41950;55.840;37.442;2023-03-01T02:06:10;98823.97;;;-6.36;63.47
56074;BME280;41950;55.840;37.442;2023-03-01T02:08:40;98828.97;;;-6.38;63.87
56074;BME280;41950;55.840;37.442;2023-03-01T02:11:10;98839.84;;;-6.40;63.78
56074;BME280;41950;55.840;37.442;2023-03-01T02:13:36;98798.41;;;-6.69;64.14
56074;BME280;41950;55.840;37.442;2023-03-01T02:16:13;98826.63;;;-6.57;64.53
56074;BME280;41950;55.840;37.442;2023-03-01T02:18:41;98809.47;;;-6.66;64.23
56074;BME280;41950;55.840;37.442;2023-03-01T02:30:15;98841.94;;;-6.52;64.35
56074;BME280;41950;55.840;37.442;2023-03-01T02:32:41;98815.78;;;-6.77;64.77
56074;BME280;41950;55.840;37.442;2023-03-01T02:35:12;98828.84;;;-6.65;64.61
56074;BME280;41950;55.840;37.442;2023-03-01T02:37:42;98830.28;;;-6.71;64.55
56074;BME280;41950;55.840;37.442;2023-03-01T02:40:16;98798.53;;;-6.89;64.57
56074;BME280;41950;55.840;37.442;2023-03-01T02:42:54;98844.78;;;-6.66;64.82
56074;BME280;41950;55.840;37.442;2023-03-01T02:45:21;98840.44;;;-6.70;65.22
56074;BME280;41950;55.840;37.442;2023-03-01T02:47:48;98837.69;;;-6.76;65.22
56074;BME280;41950;55.840;37.442;2023-03-01T02:50:38;98845.44;;;-6.71;65.35
56074;BME280;41950;55.840;37.442;2023-03-01T02:55:48;98842.03;;;-6.72;65.31
56074;BME280;41950;55.840;37.442;2023-03-01T02:58:14;98838.38;;;-6.80;65.12
56074;BME280;41950;55.840;37.442;2023-03-01T03:00:43;98853.69;;;-6.75;65.39
56074;BME280;41950;55.840;37.442;2023-03-01T03:03:17;98838.06;;;-6.88;65.41
56074;BME280;41950;55.840;37.442;2023-03-01T03:05:47;98851.06;;;-6.78;65.47
56074;BME280;41950;55.840;37.442;2023-03-01T03:08:14;98852.59;;;-6.82;65.61
56074;BME280;41950;55.840;37.442;2023-03-01T03:10:42;98859.38;;;-6.81;65.67
56074;BME280;41950;55.840;37.442;2023-03-01T03:13:13;98847.31;;;-6.88;65.74
56074;BME280;41950;55.840;37.442;2023-03-01T03:15:40;98837.75;;;-6.97;66.14
56074;BME280;41950;55.840;37.442;2023-03-01T03:18:11;98840.09;;;-7.01;66.25
56074;BME280;41950;55.840;37.442;2023-03-01T03:20:41;98861.34;;;-6.95;66.46
56074;BME280;41950;55.840;37.442;2023-03-01T03:23:07;98859.53;;;-6.99;66.66
56074;BME280;41950;55.840;37.442;2023-03-01T03:25:34;98860.44;;;-6.97;66.70
56074;BME280;41950;55.840;37.442;2023-03-01T03:28:04;98871.22;;;-7.01;66.99
56074;BME280;41950;55.840;37.442;2023-03-01T03:30:36;98849.84;;;-7.10;67.07
56074;BME280;41950;55.840;37.442;2023-03-01T03:33:04;98868.63;;;-7.02;67.10
56074;BME280;41950;55.840;37.442;2023-03-01T03:35:33;98870.97;;;-7.07;67.29
56074;BME280;41950;55.840;37.442;2023-03-01T03:38:03;98856.28;;;-7.17;67.18
56074;BME280;41950;55.840;37.442;2023-03-01T03:40:44;98871.72;;;-7.09;66.91
56074;BME280;41950;55.840;37.442;2023-03-01T03:43:16;98882.72;;;-7.07;67.26
56074;BME280;41950;55.840;37.442;2023-03-01T03:45:46;98879.28;;;-7.09;67.49
56074;BME280;41950;55.840;37.442;2023-03-01T03:48:13;98868.34;;;-7.10;67.51
56074;BME280;41950;55.840;37.442;2023-03-01T03:50:40;98863.09;;;-7.14;67.56
56074;BME280;41950;55.840;37.442;2023-03-01T03:53:09;98864.22;;;-7.08;67.66
56074;BME280;41950;55.840;37.442;2023-03-01T03:55:35;98878.50;;;-7.08;67.67
56074;BME280;41950;55.840;37.442;2023-03-01T03:58:05;98871.56;;;-7.12;68.08
56074;BME280;41950;55.840;37.442;2023-03-01T04:00:43;98864.56;;;-7.20;67.96
56074;BME280;41950;55.840;37.442;2023-03-01T04:03:10;98879.09;;;-7.14;68.33
56074;BME280;41950;55.840;37.442;2023-03-01T04:05:38;98885.13;;;-7.10;68.30
56074;BME280;41950;55.840;37.442;2023-03-01T04:08:07;98869.69;;;-7.18;68.19
56074;BME280;41950;55.840;37.442;2023-03-01T04:10:36;98884.28;;;-7.11;68.16
56074;BME280;41950;55.840;37.442;2023-03-01T04:13:04;98859.25;;;-7.27;68.07
56074;BME280;41950;55.840;37.442;2023-03-01T04:15:31;98883.25;;;-7.14;68.13
56074;BME280;41950;55.840;37.442;2023-03-01T04:17:59;98887.59;;;-7.12;68.49
56074;BME280;41950;55.840;37.442;2023-03-01T04:20:29;98877.41;;;-7.13;68.71
56074;BME280;41950;55.840;37.442;2023-03-01T04:22:59;98864.56;;;-7.20;68.46
56074;BME280;41950;55.840;37.442;2023-03-01T04:25:55;98834.53;;;-7.36;68.37
56074;BME280;41950;55.840;37.442;2023-03-01T04:28:25;98881.81;;;-7.09;68.58
56074;BME280;41950;55.840;37.442;2023-03-01T04:30:52;98872.09;;;-7.21;68.52
56074;BME280;41950;55.840;37.442;2023-03-01T04:33:18;98881.47;;;-7.17;68.63
56074;BME280;41950;55.840;37.442;2023-03-01T04:35:44;98889.38;;;-7.09;68.44
56074;BME280;41950;55.840;37.442;2023-03-01T04:38:10;98886.78;;;-7.11;68.38
56074;BME280;41950;55.840;37.442;2023-03-01T04:40:37;98828.88;;;-7.51;68.57
56074;BME280;41950;55.840;37.442;2023-03-01T04:43:03;98894.16;;;-7.16;68.67
56074;BME280;41950;55.840;37.442;2023-03-01T04:45:31;98861.66;;;-7.30;68.81
56074;BME280;41950;55.840;37.442;2023-03-01T04:47:58;98877.25;;;-7.18;68.72
56074;BME280;41950;55.840;37.442;2023-03-01T04:50:25;98877.50;;;-7.12;68.82
56074;BME280;41950;55.840;37.442;2023-03-01T04:52:52;98897.97;;;-7.04;68.49
56074;BME280;41950;55.840;37.442;2023-03-01T04:55:18;98881.00;;;-7.08;68.71
56074;BME280;41950;55.840;37.442;2023-03-01T04:57:44;98901.59;;;-6.98;68.52
56074;BME280;41950;55.840;37.442;2023-03-01T05:00:13;98884.44;;;-7.06;68.04
56074;BME280;41950;55.840;37.442;2023-03-01T05:02:58;98902.50;;;-6.96;68.54
56074;BME280;41950;55.840;37.442;2023-03-01T05:05:30;98907.84;;;-6.88;68.03
56074;BME280;41950;55.840;37.442;2023-03-01T05:08:03;98904.66;;;-6.84;67.99
56074;BME280;41950;55.840;37.442;2023-03-01T05:10:31;98907.03;;;-6.87;67.77
56074;BME280;41950;55.840;37.442;2023-03-01T05:12:59;98908.34;;;-6.76;67.60
56074;BME280;41950;55.840;37.442;2023-03-01T05:15:26;98870.94;;;-6.86;67.37
56074;BME280;41950;55.840;37.442;2023-03-01T05:17:56;98907.19;;;-6.62;67.16
56074;BME280;41950;55.840;37.442;2023-03-01T05:20:26;98902.03;;;-6.65;67.22
56074;BME280;41950;55.840;37.442;2023-03-01T05:22:57;98901.81;;;-6.71;67.22
56074;BME280;41950;55.840;37.442;2023-03-01T05:25:24;98891.47;;;-6.77;66.83
56074;BME280;41950;55.840;37.442;2023-03-01T05:27:50;98916.41;;;-6.62;67.02
56074;BME280;41950;55.840;37.442;2023-03-01T05:30:17;98912.69;;;-6.72;67.13
56074;BME280;41950;55.840;37.442;2023-03-01T05:32:48;98930.63;;;-6.64;67.13
56074;BME280;41950;55.840;37.442;2023-03-01T05:35:16;98927.94;;;-6.69;66.93
56074;BME280;41950;55.840;37.442;2023-03-01T05:37:44;98909.81;;;-6.81;67.31
56074;BME280;41950;55.840;37.442;2023-03-01T05:40:13;98936.66;;;-6.61;67.15
56074;BME280;41950;55.840;37.442;2023-03-01T05:42:49;98927.06;;;-6.48;67.16
56074;BME280;41950;55.840;37.442;2023-03-01T05:45:17;98920.44;;;-6.45;66.66
56074;BME280;41950;55.840;37.442;2023-03-01T05:47:46;98928.47;;;-6.33;66.48
56074;BME280;41950;55.840;37.442;2023-03-01T05:50:19;98921.91;;;-6.29;66.29
56074;BME280;41950;55.840;37.442;2023-03-01T05:52:51;98907.59;;;-6.29;65.60
56074;BME280;41950;55.840;37.442;2023-03-01T05:55:19;98939.94;;;-6.18;65.67
56074;BME280;41950;55.840;37.442;2023-03-01T05:57:46;98944.72;;;-6.26;65.87
56074;BME280;41950;55.840;37.442;2023-03-01T06:00:13;98932.44;;;-6.39;65.95
56074;BME280;41950;55.840;37.442;2023-03-01T06:02:40;98945.34;;;-6.32;66.39
56074;BME280;41950;55.840;37.442;2023-03-01T06:05:08;98954.13;;;-6.22;66.24
56074;BME280;41950;55.840;37.442;2023-03-01T06:07:35;98937.47;;;-6.17;65.81
56074;BME280;41950;55.840;37.442;2023-03-01T06:10:04;98961.66;;;-6.01;65.47
56074;BME280;41950;55.840;37.442;2023-03-01T06:12:34;98912.00;;;-6.23;65.42
56074;BME280;41950;55.840;37.442;2023-03-01T06:15:00;98938.25;;;-5.96;65.34
56074;BME280;41950;55.840;37.442;2023-03-01T06:17:32;98955.75;;;-5.76;64.34
56074;BME280;41950;55.840;37.442;2023-03-01T06:19:59;98951.63;;;-5.74;64.68
56074;BME280;41950;55.840;37.442;2023-03-01T06:22:28;98950.63;;;-5.78;63.93
56074;BME280;41950;55.840;37.442;2023-03-01T06:24:55;98954.78;;;-5.80;64.21
56074;BME280;41950;55.840;37.442;2023-03-01T06:27:21;98959.78;;;-5.81;64.18
56074;BME280;41950;55.840;37.442;2023-03-01T06:29:47;98902.34;;;-6.11;64.22
56074;BME280;41950;55.840;37.442;2023-03-01T06:32:15;98959.53;;;-5.65;64.32
56074;BME280;41950;55.840;37.442;2023-03-01T06:34:43;98954.94;;;-5.51;63.87
56074;BME280;41950;55.840;37.442;2023-03-01T06:37:09;98915.84;;;-5.61;63.74
56074;BME280;41950;55.840;37.442;2023-03-01T06:39:38;98960.13;;;-5.23;63.16
56074;BME280;41950;55.840;37.442;2023-03-01T06:42:04;98964.59;;;-5.16;62.81
56074;BME280;41950;55.840;37.442;2023-03-01T06:44:33;98947.94;;;-5.09;62.70
56074;BME280;41950;55.840;37.442;2023-03-01T06:47:01;98938.72;;;-5.07;62.33
56074;BME280;41950;55.840;37.442;2023-03-01T06:49:27;98861.56;;;-5.47;61.66
56074;BME280;41950;55.840;37.442;2023-03-01T06:51:52;98967.28;;;-4.86;61.97
56074;BME280;41950;55.840;37.442;2023-03-01T06:54:18;98977.19;;;-4.92;61.97
56074;BME280;41950;55.840;37.442;2023-03-01T06:56:49;98933.91;;;-5.25;62.75
56074;BME280;41950;55.840;37.442;2023-03-01T06:59:17;98962.16;;;-5.13;63.18
56074;BME280;41950;55.840;37.442;2023-03-01T07:01:44;98962.69;;;-5.21;63.83
56074;BME280;41950;55.840;37.442;2023-03-01T07:04:11;98972.66;;;-5.26;64.07
56074;BME280;41950;55.840;37.442;2023-03-01T07:06:39;98880.69;;;-5.79;64.22
56074;BME280;41950;55.840;37.442;2023-03-01T07:09:06;98981.66;;;-5.10;64.34
56074;BME280;41950;55.840;37.442;2023-03-01T07:11:32;98936.53;;;-5.22;64.20
56074;BME280;41950;55.840;37.442;2023-03-01T07:13:58;98983.47;;;-4.81;63.77
56074;BME280;41950;55.840;37.442;2023-03-01T07:16:25;98981.75;;;-4.82;63.54
56074;BME280;41950;55.840;37.442;2023-03-01T07:18:51;98992.41;;;-4.65;63.83
56074;BME280;41950;55.840;37.442;2023-03-01T07:21:16;98991.03;;;-4.55;63.25
56074;BME280;41950;55.840;37.442;2023-03-01T07:23:42;98979.81;;;-4.63;63.12
56074;BME280;41950;55.840;37.442;2023-03-01T07:26:09;99003.91;;;-4.48;62.96
56074;BME280;41950;55.840;37.442;2023-03-01T07:28:36;99007.34;;;-4.46;62.81
56074;BME280;41950;55.840;37.442;2023-03-01T07:31:05;98962.22;;;-4.59;63.19
56074;BME280;41950;55.840;37.442;2023-03-01T07:33:32;99009.41;;;-4.07;62.37
56074;BME280;41950;55.840;37.442;2023-03-01T07:36:01;99008.34;;;-4.14;62.12
56074;BME280;41950;55.840;37.442;2023-03-01T07:38:28;99006.25;;;-4.27;62.29
56074;BME280;41950;55.840;37.442;2023-03-01T07:41:00;99024.81;;;-4.28;62.66
56074;BME280;41950;55.840;37.442;2023-03-01T07:43:29;99010.41;;;-4.29;63.05
56074;BME280;41950;55.840;37.442;2023-03-01T07:45:57;99020.19;;;-4.13;62.91
56074;BME280;41950;55.840;37.442;2023-03-01T07:48:27;99015.03;;;-4.16;62.71
56074;BME280;41950;55.840;37.442;2023-03-01T07:50:54;99006.22;;;-4.00;62.37
56074;BME280;41950;55.840;37.442;2023-03-01T07:53:21;99026.63;;;-3.67;62.03
56074;BME280;41950;55.840;37.442;2023-03-01T07:55:47;99034.88;;;-3.44;61.54
56074;BME280;41950;55.840;37.442;2023-03-01T07:58:13;99008.25;;;-3.28;61.18
56074;BME280;41950;55.840;37.442;2023-03-01T08:00:39;99022.03;;;-3.19;60.19
56074;BME280;41950;55.840;37.442;2023-03-01T08:03:04;99024.03;;;-3.38;60.20
56074;BME280;41950;55.840;37.442;2023-03-01T08:05:32;99005.44;;;-3.37;60.53
56074;BME280;41950;55.840;37.442;2023-03-01T08:07:59;98994.94;;;-3.51;60.15
56074;BME280;41950;55.840;37.442;2023-03-01T08:10:25;98994.47;;;-3.68;60.27
56074;BME280;41950;55.840;37.442;2023-03-01T08:12:51;98990.41;;;-3.91;61.20
56074;BME280;41950;55.840;37.442;2023-03-01T08:15:19;99022.72;;;-3.84;61.51
56074;BME280;41950;55.840;37.442;2023-03-01T08:17:44;99014.13;;;-3.89;61.79
56074;BME280;41950;55.840;37.442;2023-03-01T08:20:11;99018.13;;;-3.97;61.98
56074;BME280;41950;55.840;37.442;2023-03-01T08:22:37;99011.59;;;-3.89;62.50
56074;BME280;41950;55.840;37.442;2023-03-01T08:25:03;99018.16;;;-3.67;61.67
56074;BME280;41950;55.840;37.442;2023-03-01T08:27:31;99028.53;;;-3.58;60.64
56074;BME280;41950;55.840;37.442;2023-03-01T08:29:58;99029.78;;;-3.74;60.73
56074;BME280;41950;55.840;37.442;2023-03-01T08:32:24;99042.84;;;-3.60;60.98
56074;BME280;41950;55.840;37.442;2023-03-01T08:34:50;99031.34;;;-3.49;60.78
56074;BME280;41950;55.840;37.442;2023-03-01T08:37:17;99052.09;;;-3.32;60.30
56074;BME280;41950;55.840;37.442;2023-03-01T08:39:43;99045.44;;;-3.59;59.81
56074;BME280;41950;55.840;37.442;2023-03-01T08:42:10;99031.34;;;-3.79;60.02
56074;BME280;41950;55.840;37.442;2023-03-01T08:44:36;99042.47;;;-3.74;60.36
56074;BME280;41950;55.840;37.442;2023-03-01T08:47:02;99054.69;;;-3.61;60.54
56074;BME280;41950;55.840;37.442;2023-03-01T08:49:30;99047.28;;;-3.55;59.94
56074;BME280;41950;55.840;37.442;2023-03-01T08:52:01;99070.25;;;-3.49;59.69
56074;BME280;41950;55.840;37.442;2023-03-01T08:54:27;99041.06;;;-3.64;59.77
56074;BME280;41950;55.840;37.442;2023-03-01T08:56:54;99057.28;;;-3.58;60.24
56074;BME280;41950;55.840;37.442;2023-03-01T08:59:21;99047.34;;;-3.52;60.04
56074;BME280;41950;55.840;37.442;2023-03-01T09:01:48;99049.75;;;-3.26;59.76
56074;BME280;41950;55.840;37.442;2023-03-01T09:04:14;99026.66;;;-3.35;58.83
56074;BME280;41950;55.840;37.442;2023-03-01T09:06:41;99058.31;;;-3.23;59.67
56074;BME280;41950;55.840;37.442;2023-03-01T09:09:13;99057.09;;;-3.04;59.74
56074;BME280;41950;55.840;37.442;2023-03-01T09:11:42;99022.91;;;-3.18;59.40
56074;BME280;41950;55.840;37.442;2023-03-01T09:14:11;99065.72;;;-2.99;58.99
56074;BME280;41950;55.840;37.442;2023-03-01T09:16:37;99055.16;;;-3.14;59.28
56074;BME280;41950;55.840;37.442;2023-03-01T09:19:03;99018.09;;;-3.39;59.25
56074;BME280;41950;55.840;37.442;2023-03-01T09:21:29;99071.69;;;-3.28;59.27
56074;BME280;41950;55.840;37.442;2023-03-01T09:23:57;99038.03;;;-3.53;59.87
56074;BME280;41950;55.840;37.442;2023-03-01T09:26:24;99043.50;;;-3.37;59.73
56074;BME280;41950;55.840;37.442;2023-03-01T09:28:55;99006.84;;;-3.49;59.53
56074;BME280;41950;55.840;37.442;2023-03-01T09:31:24;99058.63;;;-3.11;59.65
56074;BME280;41950;55.840;37.442;2023-03-01T09:33:52;99006.69;;;-3.23;59.49
56074;BME280;41950;55.840;37.442;2023-03-01T09:36:20;99071.38;;;-2.76;59.02
56074;BME280;41950;55.840;37.442;2023-03-01T09:38:47;99065.84;;;-2.61;58.04
56074;BME280;41950;55.840;37.442;2023-03-01T09:41:42;99054.69;;;-2.68;58.04
56074;BME280;41950;55.840;37.442;2023-03-01T09:44:36;99068.53;;;-2.55;58.30
56074;BME280;41950;55.840;37.442;2023-03-01T09:47:05;99062.03;;;-2.44;58.04
56074;BME280;41950;55.840;37.442;2023-03-01T09:49:36;99036.69;;;-2.75;57.67
56074;BME280;41950;55.840;37.442;2023-03-01T09:52:30;99069.31;;;-2.58;58.21
56074;BME280;41950;55.840;37.442;2023-03-01T09:55:00;99021.44;;;-2.75;57.55
56074;BME280;41950;55.840;37.442;2023-03-01T09:57:47;99074.78;;;-2.42;57.13
56074;BME280;41950;55.840;37.442;2023-03-01T10:00:35;99065.19;;;-2.53;57.20
56074;BME280;41950;55.840;37.442;2023-03-01T10:03:19;99068.22;;;-2.33;56.87
56074;BME280;41950;55.840;37.442;2023-03-01T10:08:43;99065.31;;;-2.13;56.37
56074;BME280;41950;55.840;37.442;2023-03-01T10:11:25;99082.66;;;-1.96;55.13
56074;BME280;41950;55.840;37.442;2023-03-01T10:16:57;99071.31;;;-1.72;54.37
56074;BME280;41950;55.840;37.442;2023-03-01T10:22:28;99031.97;;;-1.90;54.60
56074;BME280;41950;55.840;37.442;2023-03-01T10:24:58;99084.00;;;-1.74;54.32
56074;BME280;41950;55.840;37.442;2023-03-01T10:27:29;99080.81;;;-2.03;54.11
56074;BME280;41950;55.840;37.442;2023-03-01T10:30:38;99087.78;;;-2.30;55.15
56074;BME280;41950;55.840;37.442;2023-03-01T10:35:50;99035.75;;;-2.46;55.63
56074;BME280;41950;55.840;37.442;2023-03-01T10:38:18;99062.56;;;-2.21;54.89
56074;BME280;41950;55.840;37.442;2023-03-01T10:43:17;99041.03;;;-2.37;55.44
56074;BME280;41950;55.840;37.442;2023-03-01T10:45:44;99076.53;;;-2.04;55.26
56074;BME280;41950;55.840;37.442;2023-03-01T10:48:17;99038.88;;;-2.20;54.34
56074;BME280;41950;55.840;37.442;2023-03-01T10:50:48;99072.03;;;-1.78;54.45
56074;BME280;41950;55.840;37.442;2023-03-01T10:58:32;99059.72;;;-1.60;53.04
56074;BME280;41950;55.840;37.442;2023-03-01T11:01:29;99065.88;;;-1.48;52.67
56074;BME280;41950;55.840;37.442;2023-03-01T11:04:11;99066.38;;;-1.24;51.74
56074;BME280;41950;55.840;37.442;2023-03-01T11:06:40;99058.84;;;-1.19;51.90
56074;BME280;41950;55.840;37.442;2023-03-01T11:09:33;99055.47;;;-0.73;51.24
56074;BME280;41950;55.840;37.442;2023-03-01T11:12:13;99059.25;;;-0.98;50.55
56074;BME280;41950;55.840;37.442;2023-03-01T11:14:47;99054.44;;;-1.28;51.54
56074;BME280;41950;55.840;37.442;2023-03-01T11:17:18;99044.41;;;-1.19;51.39
56074;BME280;41950;55.840;37.442;2023-03-01T11:19:59;99067.41;;;-1.14;51.71
56074;BME280;41950;55.840;37.442;2023-03-01T11:22:26;99050.31;;;-1.64;52.12
56074;BME280;41950;55.840;37.442;2023-03-01T11:24:57;99018.19;;;-1.98;52.34
56074;BME280;41950;55.840;37.442;2023-03-01T11:27:31;99066.97;;;-1.78;52.13
56074;BME280;41950;55.840;37.442;2023-03-01T11:30:19;99070.59;;;-1.67;52.60
56074;BME280;41950;55.840;37.442;2023-03-01T11:33:10;99049.00;;;-1.45;52.53
56074;BME280;41950;55.840;37.442;2023-03-01T11:35:42;99060.63;;;-0.69;51.07
56074;BME280;41950;55.840;37.442;2023-03-01T11:38:28;99067.38;;;-0.72;50.27
56074;BME280;41950;55.840;37.442;2023-03-01T11:44:10;99070.69;;;-0.78;50.04
56074;BME280;41950;55.840;37.442;2023-03-01T11:46:43;99090.16;;;-0.81;49.37
56074;BME280;41950;55.840;37.442;2023-03-01T11:59:13;99078.38;;;-0.25;47.36
56074;BME280;41950;55.840;37.442;2023-03-01T12:07:32;99092.88;;;-0.71;48.62
56074;BME280;41950;55.840;37.442;2023-03-01T12:10:30;99060.22;;;-0.91;48.86
56074;BME280;41950;55.840;37.442;2023-03-01T12:13:20;99086.19;;;-0.64;48.88
56074;BME280;41950;55.840;37.442;2023-03-01T12:18:33;99078.03;;;-0.91;49.74
56074;BME280;41950;55.840;37.442;2023-03-01T12:21:12;99076.06;;;-0.61;48.63
56074;BME280;41950;55.840;37.442;2023-03-01T12:35:36;99072.31;;;-0.81;49.16
56074;BME280;41950;55.840;37.442;2023-03-01T12:40:53;99064.69;;;-0.80;49.36
56074;BME280;41950;55.840;37.442;2023-03-01T12:46:46;99081.16;;;-1.08;49.96
56074;BME280;41950;55.840;37.442;2023-03-01T12:49:31;99086.59;;;-1.33;50.65
56074;BME280;41950;55.840;37.442;2023-03-01T12:52:21;99083.03;;;-1.40;50.70
56074;BME280;41950;55.840;37.442;2023-03-01T12:54:51;99092.41;;;-1.37;51.14
56074;BME280;41950;55.840;37.442;2023-03-01T12:57:28;99118.09;;;-1.66;50.94
56074;BME280;41950;55.840;37.442;2023-03-01T13:08:31;99093.13;;;-1.83;52.30
56074;BME280;41950;55.840;37.442;2023-03-01T13:11:18;99044.94;;;-2.15;52.76
56074;BME280;41950;55.840;37.442;2023-03-01T13:13:49;99089.41;;;-1.98;52.83
56074;BME280;41950;55.840;37.442;2023-03-01T13:19:28;99101.16;;;-2.03;53.44
56074;BME280;41950;55.840;37.442;2023-03-01T13:22:27;99086.91;;;-2.31;53.71
56074;BME280;41950;55.840;37.442;2023-03-01T13:25:10;99056.75;;;-2.52;54.29
56074;BME280;41950;55.840;37.442;2023-03-01T13:27:38;99069.06;;;-2.34;54.69
56074;BME280;41950;55.840;37.442;2023-03-01T13:30:03;99084.72;;;-2.17;54.50
56074;BME280;41950;55.840;37.442;2023-03-01T13:32:35;99082.25;;;-2.14;54.55
56074;BME280;41950;55.840;37.442;2023-03-01T13:37:44;99078.56;;;-2.25;55.01
56074;BME280;41950;55.840;37.442;2023-03-01T13:42:45;99034.81;;;-2.48;55.28
56074;BME280;41950;55.840;37.442;2023-03-01T13:45:34;99064.03;;;-2.31;55.33
56074;BME280;41950;55.840;37.442;2023-03-01T13:48:24;99070.84;;;-2.30;55.49
56074;BME280;41950;55.840;37.442;2023-03-01T13:50:54;99064.59;;;-2.44;55.67
56074;BME280;41950;55.840;37.442;2023-03-01T13:53:24;99070.75;;;-2.34;56.05
56074;BME280;41950;55.840;37.442;2023-03-01T13:55:58;98998.13;;;-2.61;56.23
56074;BME280;41950;55.840;37.442;2023-03-01T13:58:33;99071.97;;;-2.19;55.95
56074;BME280;41950;55.840;37.442;2023-03-01T14:01:33;99040.97;;;-2.40;54.94
56074;BME280;41950;55.840;37.442;2023-03-01T14:03:59;99032.88;;;-2.58;55.30
56074;BME280;41950;55.840;37.442;2023-03-01T14:06:31;99021.72;;;-2.65;55.69
56074;BME280;41950;55.840;37.442;2023-03-01T14:15:29;99054.69;;;-2.68;56.46
56074;BME280;41950;55.840;37.442;2023-03-01T14:18:16;99046.88;;;-2.74;56.95
56074;BME280;41950;55.840;37.442;2023-03-01T14:20:45;99034.94;;;-2.78;57.29
56074;BME280;41950;55.840;37.442;2023-03-01T14:23:25;98958.72;;;-3.14;57.28
56074;BME280;41950;55.840;37.442;2023-03-01T14:25:57;99008.34;;;-2.92;57.46
56074;BME280;41950;55.840;37.442;2023-03-01T14:28:31;99039.31;;;-2.72;57.89
56074;BME280;41950;55.840;37.442;2023-03-01T14:31:03;99033.50;;;-2.68;57.76
56074;BME280;41950;55.840;37.442;2023-03-01T14:33:55;99036.72;;;-2.74;57.75
56074;BME280;41950;55.840;37.442;2023-03-01T14:36:28;99030.53;;;-2.85;58.55
56074;BME280;41950;55.840;37.442;2023-03-01T14:38:57;98996.19;;;-3.04;58.61
56074;BME280;41950;55.840;37.442;2023-03-01T14:41:34;99025.34;;;-2.90;59.05
56074;BME280;41950;55.840;37.442;2023-03-01T14:44:11;99029.63;;;-2.87;59.19